sensor_id;sensor_type;location;lat;lon;timestamp;P1;durP1;ratioP1;P2;durP2;ratioP2
54263;SDS011;40178;53.042;6.406;2023-09-19T00:02:02;5.80;;;2.42;;
54263;SDS011;40178;53.042;6.406;2023-09-19T00:04:34;5.43;;;2.42;;
54263;SDS011;40178;53.042;6.406;2023-09-19T00:07:00;6.95;;;2.60;;
54263;SDS011;40178;53.042;6.406;2023-09-19T00:09:27;8.80;;;2.80;;
54263;SDS011;40178;53.042;6.406;2023-09-19T00:11:53;10.70;;;2.33;;
54263;SDS011;40178;53.042;6.406;2023-09-19T00:14:19;8.23;;;2.67;;
54263;SDS011;40178;53.042;6.406;2023-09-19T00:16:44;7.88;;;2.10;;
54263;SDS011;40178;53.042;6.406;2023-09-19T00:19:11;6.53;;;2.13;;
54263;SDS011;40178;53.042;6.406;2023-09-19T00:21:37;6.43;;;2.33;;
54263;SDS011;40178;53.042;6.406;2023-09-19T00:24:04;6.10;;;2.20;;
54263;SDS011;40178;53.042;6.406;2023-09-19T00:26:31;8.05;;;2.40;;
54263;SDS011;40178;53.042;6.406;2023-09-19T00:28:57;9.75;;;2.45;;
54263;SDS011;40178;53.042;6.406;2023-09-19T00:31:24;7.30;;;2.10;;
54263;SDS011;40178;53.042;6.406;2023-09-19T00:33:50;7.18;;;2.28;;
54263;SDS011;40178;53.042;6.406;2023-09-19T00:36:16;6.97;;;2.38;;
54263;SDS011;40178;53.042;6.406;2023-09-19T00:38:43;8.95;;;2.30;;
54263;SDS011;40178;53.042;6.406;2023-09-19T00:41:10;5.93;;;2.15;;
54263;SDS011;40178;53.042;6.406;2023-09-19T00:43:37;5.40;;;2.38;;
54263;SDS011;40178;53.042;6.406;2023-09-19T00:46:05;7.60;;;2.20;;
54263;SDS011;40178;53.042;6.406;2023-09-19T00:48:32;7.72;;;2.15;;
54263;SDS011;40178;53.042;6.406;2023-09-19T00:51:06;10.98;;;2.20;;
54263;SDS011;40178;53.042;6.406;2023-09-19T00:53:32;9.27;;;2.25;;
54263;SDS011;40178;53.042;6.406;2023-09-19T00:55:59;11.00;;;2.00;;
54263;SDS011;40178;53.042;6.406;2023-09-19T00:58:25;9.40;;;2.38;;
54263;SDS011;40178;53.042;6.406;2023-09-19T01:00:51;7.55;;;2.38;;
54263;SDS011;40178;53.042;6.406;2023-09-19T01:03:18;7.82;;;2.38;;
54263;SDS011;40178;53.042;6.406;2023-09-19T01:05:44;7.25;;;2.47;;
54263;SDS011;40178;53.042;6.406;2023-09-19T01:08:09;8.30;;;2.15;;
54263;SDS011;40178;53.042;6.406;2023-09-19T01:10:44;9.32;;;2.58;;
54263;SDS011;40178;53.042;6.406;2023-09-19T01:21:16;6.78;;;2.40;;
54263;SDS011;40178;53.042;6.406;2023-09-19T01:24:10;7.72;;;2.47;;
54263;SDS011;40178;53.042;6.406;2023-09-19T01:29:38;7.05;;;2.00;;
54263;SDS011;40178;53.042;6.406;2023-09-19T01:32:08;8.95;;;2.15;;
54263;SDS011;40178;53.042;6.406;2023-09-19T01:37:14;6.70;;;1.85;;
54263;SDS011;40178;53.042;6.406;2023-09-19T01:39:45;5.90;;;1.90;;
54263;SDS011;40178;53.042;6.406;2023-09-19T01:48:00;5.95;;;1.75;;
54263;SDS011;40178;53.042;6.406;2023-09-19T01:50:38;8.38;;;1.45;;
54263;SDS011;40178;53.042;6.406;2023-09-19T01:53:20;7.97;;;2.15;;
54263;SDS011;40178;53.042;6.406;2023-09-19T01:55:50;8.48;;;2.42;;
54263;SDS011;40178;53.042;6.406;2023-09-19T02:01:11;7.82;;;2.30;;
54263;SDS011;40178;53.042;6.406;2023-09-19T02:03:39;7.75;;;2.15;;
54263;SDS011;40178;53.042;6.406;2023-09-19T02:06:05;6.07;;;1.80;;
54263;SDS011;40178;53.042;6.406;2023-09-19T02:08:36;7.90;;;2.25;;
54263;SDS011;40178;53.042;6.406;2023-09-19T02:11:02;11.25;;;2.50;;
54263;SDS011;40178;53.042;6.406;2023-09-19T02:13:28;6.97;;;1.73;;
54263;SDS011;40178;53.042;6.406;2023-09-19T02:15:56;7.05;;;2.03;;
54263;SDS011;40178;53.042;6.406;2023-09-19T02:18:22;8.65;;;1.92;;
54263;SDS011;40178;53.042;6.406;2023-09-19T02:20:48;5.68;;;1.48;;
54263;SDS011;40178;53.042;6.406;2023-09-19T02:23:14;8.57;;;1.80;;
54263;SDS011;40178;53.042;6.406;2023-09-19T02:25:40;7.18;;;1.90;;
54263;SDS011;40178;53.042;6.406;2023-09-19T02:28:08;9.05;;;1.75;;
54263;SDS011;40178;53.042;6.406;2023-09-19T02:30:34;7.50;;;1.65;;
54263;SDS011;40178;53.042;6.406;2023-09-19T02:33:01;11.18;;;1.33;;
54263;SDS011;40178;53.042;6.406;2023-09-19T02:35:27;5.82;;;1.70;;
54263;SDS011;40178;53.042;6.406;2023-09-19T02:37:53;7.38;;;1.58;;
54263;SDS011;40178;53.042;6.406;2023-09-19T02:40:19;7.95;;;2.00;;
54263;SDS011;40178;53.042;6.406;2023-09-19T02:42:45;7.43;;;1.63;;
54263;SDS011;40178;53.042;6.406;2023-09-19T02:45:17;6.55;;;1.80;;
54263;SDS011;40178;53.042;6.406;2023-09-19T02:47:47;9.43;;;1.80;;
54263;SDS011;40178;53.042;6.406;2023-09-19T02:50:13;9.85;;;1.88;;
54263;SDS011;40178;53.042;6.406;2023-09-19T02:52:41;7.03;;;1.70;;
54263;SDS011;40178;53.042;6.406;2023-09-19T02:55:14;6.13;;;1.45;;
54263;SDS011;40178;53.042;6.406;2023-09-19T02:57:52;11.68;;;2.20;;
54263;SDS011;40178;53.042;6.406;2023-09-19T03:00:21;9.77;;;2.17;;
54263;SDS011;40178;53.042;6.406;2023-09-19T03:02:48;7.28;;;2.05;;
54263;SDS011;40178;53.042;6.406;2023-09-19T03:05:19;9.70;;;2.03;;
54263;SDS011;40178;53.042;6.406;2023-09-19T03:07:46;10.48;;;2.35;;
54263;SDS011;40178;53.042;6.406;2023-09-19T03:10:15;7.88;;;1.90;;
54263;SDS011;40178;53.042;6.406;2023-09-19T03:12:45;8.90;;;2.10;;
54263;SDS011;40178;53.042;6.406;2023-09-19T03:15:11;9.07;;;2.35;;
54263;SDS011;40178;53.042;6.406;2023-09-19T03:17:37;6.18;;;1.55;;
54263;SDS011;40178;53.042;6.406;2023-09-19T03:20:03;4.70;;;1.67;;
54263;SDS011;40178;53.042;6.406;2023-09-19T03:22:29;6.47;;;1.92;;
54263;SDS011;40178;53.042;6.406;2023-09-19T03:24:55;7.30;;;1.92;;
54263;SDS011;40178;53.042;6.406;2023-09-19T03:27:20;10.23;;;1.95;;
54263;SDS011;40178;53.042;6.406;2023-09-19T03:29:46;7.60;;;2.15;;
54263;SDS011;40178;53.042;6.406;2023-09-19T03:32:12;6.97;;;1.80;;
54263;SDS011;40178;53.042;6.406;2023-09-19T03:34:38;7.53;;;1.90;;
54263;SDS011;40178;53.042;6.406;2023-09-19T03:37:11;7.22;;;2.22;;
54263;SDS011;40178;53.042;6.406;2023-09-19T03:39:37;8.18;;;1.95;;
54263;SDS011;40178;53.042;6.406;2023-09-19T03:42:02;10.88;;;1.98;;
54263;SDS011;40178;53.042;6.406;2023-09-19T03:44:32;7.03;;;1.90;;
54263;SDS011;40178;53.042;6.406;2023-09-19T03:46:58;8.00;;;1.63;;
54263;SDS011;40178;53.042;6.406;2023-09-19T03:49:23;9.80;;;2.20;;
54263;SDS011;40178;53.042;6.406;2023-09-19T03:51:49;8.18;;;2.03;;
54263;SDS011;40178;53.042;6.406;2023-09-19T03:54:15;7.82;;;1.70;;
54263;SDS011;40178;53.042;6.406;2023-09-19T03:56:42;8.70;;;2.13;;
54263;SDS011;40178;53.042;6.406;2023-09-19T03:59:08;6.97;;;2.58;;
54263;SDS011;40178;53.042;6.406;2023-09-19T04:01:34;6.57;;;1.92;;
54263;SDS011;40178;53.042;6.406;2023-09-19T04:04:00;7.60;;;2.55;;
54263;SDS011;40178;53.042;6.406;2023-09-19T04:06:33;7.25;;;2.08;;
54263;SDS011;40178;53.042;6.406;2023-09-19T04:09:00;7.75;;;2.88;;
54263;SDS011;40178;53.042;6.406;2023-09-19T04:11:26;6.95;;;2.08;;
54263;SDS011;40178;53.042;6.406;2023-09-19T04:13:52;10.48;;;2.10;;
54263;SDS011;40178;53.042;6.406;2023-09-19T04:16:18;7.85;;;2.30;;
54263;SDS011;40178;53.042;6.406;2023-09-19T04:18:44;4.63;;;1.63;;
54263;SDS011;40178;53.042;6.406;2023-09-19T04:21:10;10.35;;;2.70;;
54263;SDS011;40178;53.042;6.406;2023-09-19T04:23:36;8.98;;;2.97;;
54263;SDS011;40178;53.042;6.406;2023-09-19T04:26:01;5.60;;;2.35;;
54263;SDS011;40178;53.042;6.406;2023-09-19T04:28:30;8.63;;;2.58;;
54263;SDS011;40178;53.042;6.406;2023-09-19T04:30:57;8.27;;;2.08;;
54263;SDS011;40178;53.042;6.406;2023-09-19T04:33:24;7.30;;;2.22;;
54263;SDS011;40178;53.042;6.406;2023-09-19T04:35:52;7.38;;;2.75;;
54263;SDS011;40178;53.042;6.406;2023-09-19T04:38:20;9.30;;;2.80;;
54263;SDS011;40178;53.042;6.406;2023-09-19T04:40:46;7.97;;;2.30;;
54263;SDS011;40178;53.042;6.406;2023-09-19T04:43:12;7.35;;;2.15;;
54263;SDS011;40178;53.042;6.406;2023-09-19T04:45:38;5.88;;;2.53;;
54263;SDS011;40178;53.042;6.406;2023-09-19T04:48:05;10.80;;;2.28;;
54263;SDS011;40178;53.042;6.406;2023-09-19T04:50:37;7.25;;;2.33;;
54263;SDS011;40178;53.042;6.406;2023-09-19T04:53:03;7.47;;;2.70;;
54263;SDS011;40178;53.042;6.406;2023-09-19T04:55:29;10.45;;;3.33;;
54263;SDS011;40178;53.042;6.406;2023-09-19T04:57:55;9.60;;;2.38;;
54263;SDS011;40178;53.042;6.406;2023-09-19T05:00:21;8.73;;;2.22;;
54263;SDS011;40178;53.042;6.406;2023-09-19T05:02:52;8.02;;;2.03;;
54263;SDS011;40178;53.042;6.406;2023-09-19T05:05:21;9.23;;;2.17;;
54263;SDS011;40178;53.042;6.406;2023-09-19T05:07:47;7.30;;;2.30;;
54263;SDS011;40178;53.042;6.406;2023-09-19T05:10:13;9.13;;;2.45;;
54263;SDS011;40178;53.042;6.406;2023-09-19T05:12:40;6.35;;;2.20;;
54263;SDS011;40178;53.042;6.406;2023-09-19T05:15:06;7.28;;;2.85;;
54263;SDS011;40178;53.042;6.406;2023-09-19T05:17:33;6.72;;;2.65;;
54263;SDS011;40178;53.042;6.406;2023-09-19T05:19:59;9.05;;;2.60;;
54263;SDS011;40178;53.042;6.406;2023-09-19T05:22:36;9.57;;;2.30;;
54263;SDS011;40178;53.042;6.406;2023-09-19T05:25:04;8.57;;;2.20;;
54263;SDS011;40178;53.042;6.406;2023-09-19T05:27:30;9.82;;;2.78;;
54263;SDS011;40178;53.042;6.406;2023-09-19T05:29:56;14.48;;;2.53;;
54263;SDS011;40178;53.042;6.406;2023-09-19T05:32:22;7.07;;;2.17;;
54263;SDS011;40178;53.042;6.406;2023-09-19T05:34:48;8.00;;;2.47;;
54263;SDS011;40178;53.042;6.406;2023-09-19T05:37:18;7.97;;;2.50;;
54263;SDS011;40178;53.042;6.406;2023-09-19T05:39:43;9.32;;;2.42;;
54263;SDS011;40178;53.042;6.406;2023-09-19T05:42:09;9.73;;;2.47;;
54263;SDS011;40178;53.042;6.406;2023-09-19T05:44:35;6.18;;;2.40;;
54263;SDS011;40178;53.042;6.406;2023-09-19T05:47:01;5.97;;;2.00;;
54263;SDS011;40178;53.042;6.406;2023-09-19T05:49:28;8.52;;;2.45;;
54263;SDS011;40178;53.042;6.406;2023-09-19T05:51:53;8.63;;;2.58;;
54263;SDS011;40178;53.042;6.406;2023-09-19T05:54:20;10.20;;;1.73;;
54263;SDS011;40178;53.042;6.406;2023-09-19T05:56:46;9.52;;;2.10;;
54263;SDS011;40178;53.042;6.406;2023-09-19T05:59:12;6.50;;;2.40;;
54263;SDS011;40178;53.042;6.406;2023-09-19T06:01:41;13.93;;;2.60;;
54263;SDS011;40178;53.042;6.406;2023-09-19T06:04:09;8.05;;;2.03;;
54263;SDS011;40178;53.042;6.406;2023-09-19T06:06:35;7.35;;;2.47;;
54263;SDS011;40178;53.042;6.406;2023-09-19T06:09:04;7.20;;;2.13;;
54263;SDS011;40178;53.042;6.406;2023-09-19T06:11:34;6.15;;;1.83;;
54263;SDS011;40178;53.042;6.406;2023-09-19T06:14:01;10.25;;;2.15;;
54263;SDS011;40178;53.042;6.406;2023-09-19T06:16:27;6.32;;;2.35;;
54263;SDS011;40178;53.042;6.406;2023-09-19T06:18:54;7.88;;;2.35;;
54263;SDS011;40178;53.042;6.406;2023-09-19T06:21:21;9.40;;;2.95;;
54263;SDS011;40178;53.042;6.406;2023-09-19T06:23:47;10.68;;;2.47;;
54263;SDS011;40178;53.042;6.406;2023-09-19T06:26:13;6.78;;;2.45;;
54263;SDS011;40178;53.042;6.406;2023-09-19T06:28:39;8.38;;;1.73;;
54263;SDS011;40178;53.042;6.406;2023-09-19T06:31:06;8.75;;;2.10;;
54263;SDS011;40178;53.042;6.406;2023-09-19T06:33:35;7.60;;;2.75;;
54263;SDS011;40178;53.042;6.406;2023-09-19T06:36:07;7.05;;;1.98;;
54263;SDS011;40178;53.042;6.406;2023-09-19T06:38:33;6.68;;;1.85;;
54263;SDS011;40178;53.042;6.406;2023-09-19T06:41:02;8.57;;;2.30;;
54263;SDS011;40178;53.042;6.406;2023-09-19T06:43:32;9.63;;;2.25;;
54263;SDS011;40178;53.042;6.406;2023-09-19T06:45:59;9.20;;;2.53;;
54263;SDS011;40178;53.042;6.406;2023-09-19T06:48:27;7.10;;;1.80;;
54263;SDS011;40178;53.042;6.406;2023-09-19T06:50:58;7.97;;;2.08;;
54263;SDS011;40178;53.042;6.406;2023-09-19T06:53:27;8.15;;;2.80;;
54263;SDS011;40178;53.042;6.406;2023-09-19T06:55:56;6.03;;;1.92;;
54263;SDS011;40178;53.042;6.406;2023-09-19T06:58:22;9.57;;;2.42;;
54263;SDS011;40178;53.042;6.406;2023-09-19T07:00:48;9.18;;;2.45;;
54263;SDS011;40178;53.042;6.406;2023-09-19T07:03:15;6.70;;;1.73;;
54263;SDS011;40178;53.042;6.406;2023-09-19T07:05:43;8.60;;;1.85;;
54263;SDS011;40178;53.042;6.406;2023-09-19T07:08:09;8.68;;;2.20;;
54263;SDS011;40178;53.042;6.406;2023-09-19T07:10:37;9.93;;;1.85;;
54263;SDS011;40178;53.042;6.406;2023-09-19T07:13:06;9.27;;;2.17;;
54263;SDS011;40178;53.042;6.406;2023-09-19T07:15:35;7.32;;;2.25;;
54263;SDS011;40178;53.042;6.406;2023-09-19T07:18:11;7.45;;;2.50;;
54263;SDS011;40178;53.042;6.406;2023-09-19T07:20:42;8.52;;;1.92;;
54263;SDS011;40178;53.042;6.406;2023-09-19T07:23:20;7.65;;;2.50;;
54263;SDS011;40178;53.042;6.406;2023-09-19T07:25:48;8.25;;;2.05;;
54263;SDS011;40178;53.042;6.406;2023-09-19T07:28:14;6.45;;;2.25;;
54263;SDS011;40178;53.042;6.406;2023-09-19T07:30:40;7.45;;;2.95;;
54263;SDS011;40178;53.042;6.406;2023-09-19T07:33:06;8.63;;;2.53;;
54263;SDS011;40178;53.042;6.406;2023-09-19T07:35:35;10.27;;;2.22;;
54263;SDS011;40178;53.042;6.406;2023-09-19T07:38:01;8.07;;;2.15;;
54263;SDS011;40178;53.042;6.406;2023-09-19T07:40:26;6.07;;;2.17;;
54263;SDS011;40178;53.042;6.406;2023-09-19T07:42:57;5.45;;;1.77;;
54263;SDS011;40178;53.042;6.406;2023-09-19T07:45:26;9.07;;;1.73;;
54263;SDS011;40178;53.042;6.406;2023-09-19T07:47:55;8.85;;;2.17;;
54263;SDS011;40178;53.042;6.406;2023-09-19T07:50:21;5.25;;;1.70;;
54263;SDS011;40178;53.042;6.406;2023-09-19T07:52:47;9.75;;;1.88;;
54263;SDS011;40178;53.042;6.406;2023-09-19T07:55:16;7.78;;;1.85;;
54263;SDS011;40178;53.042;6.406;2023-09-19T07:57:42;5.63;;;1.80;;
54263;SDS011;40178;53.042;6.406;2023-09-19T08:00:09;10.20;;;2.38;;
54263;SDS011;40178;53.042;6.406;2023-09-19T08:02:38;4.85;;;1.88;;
54263;SDS011;40178;53.042;6.406;2023-09-19T08:05:05;10.07;;;2.25;;
54263;SDS011;40178;53.042;6.406;2023-09-19T08:07:35;6.65;;;1.60;;
54263;SDS011;40178;53.042;6.406;2023-09-19T08:10:01;6.15;;;1.92;;
54263;SDS011;40178;53.042;6.406;2023-09-19T08:12:28;4.95;;;1.90;;
54263;SDS011;40178;53.042;6.406;2023-09-19T08:14:55;8.90;;;1.75;;
54263;SDS011;40178;53.042;6.406;2023-09-19T08:17:21;8.02;;;2.20;;
54263;SDS011;40178;53.042;6.406;2023-09-19T08:19:48;5.50;;;1.88;;
54263;SDS011;40178;53.042;6.406;2023-09-19T08:22:17;5.30;;;1.70;;
54263;SDS011;40178;53.042;6.406;2023-09-19T08:24:44;9.10;;;1.90;;
54263;SDS011;40178;53.042;6.406;2023-09-19T08:27:09;8.32;;;1.95;;
54263;SDS011;40178;53.042;6.406;2023-09-19T08:29:37;7.40;;;2.40;;
54263;SDS011;40178;53.042;6.406;2023-09-19T08:32:03;7.00;;;2.40;;
54263;SDS011;40178;53.042;6.406;2023-09-19T08:34:29;9.20;;;2.53;;
54263;SDS011;40178;53.042;6.406;2023-09-19T08:36:58;11.95;;;2.35;;
54263;SDS011;40178;53.042;6.406;2023-09-19T08:39:23;6.15;;;1.60;;
54263;SDS011;40178;53.042;6.406;2023-09-19T08:41:56;7.78;;;1.80;;
54263;SDS011;40178;53.042;6.406;2023-09-19T08:44:24;8.65;;;2.10;;
54263;SDS011;40178;53.042;6.406;2023-09-19T08:46:49;10.25;;;2.28;;
54263;SDS011;40178;53.042;6.406;2023-09-19T08:49:33;7.93;;;2.83;;
54263;SDS011;40178;53.042;6.406;2023-09-19T08:52:16;8.40;;;2.70;;
54263;SDS011;40178;53.042;6.406;2023-09-19T08:54:54;13.18;;;2.47;;
54263;SDS011;40178;53.042;6.406;2023-09-19T08:57:26;10.30;;;2.75;;
54263;SDS011;40178;53.042;6.406;2023-09-19T08:59:56;10.63;;;2.88;;
54263;SDS011;40178;53.042;6.406;2023-09-19T09:02:22;11.40;;;3.60;;
54263;SDS011;40178;53.042;6.406;2023-09-19T09:04:50;11.07;;;3.38;;
54263;SDS011;40178;53.042;6.406;2023-09-19T09:07:16;11.82;;;3.35;;
54263;SDS011;40178;53.042;6.406;2023-09-19T09:09:44;11.63;;;3.10;;
54263;SDS011;40178;53.042;6.406;2023-09-19T09:12:13;9.52;;;2.70;;
54263;SDS011;40178;53.042;6.406;2023-09-19T09:14:40;8.52;;;2.83;;
54263;SDS011;40178;53.042;6.406;2023-09-19T09:17:10;8.65;;;2.78;;
54263;SDS011;40178;53.042;6.406;2023-09-19T09:19:37;9.15;;;2.53;;
54263;SDS011;40178;53.042;6.406;2023-09-19T09:22:06;5.68;;;2.20;;
54263;SDS011;40178;53.042;6.406;2023-09-19T09:24:36;11.15;;;2.38;;
54263;SDS011;40178;53.042;6.406;2023-09-19T09:27:04;9.00;;;2.28;;
54263;SDS011;40178;53.042;6.406;2023-09-19T09:29:46;8.50;;;2.28;;
54263;SDS011;40178;53.042;6.406;2023-09-19T09:32:16;10.25;;;2.83;;
54263;SDS011;40178;53.042;6.406;2023-09-19T09:34:53;7.28;;;2.33;;
54263;SDS011;40178;53.042;6.406;2023-09-19T09:37:23;8.38;;;2.28;;
54263;SDS011;40178;53.042;6.406;2023-09-19T09:39:57;8.15;;;2.15;;
54263;SDS011;40178;53.042;6.406;2023-09-19T09:42:37;8.35;;;1.75;;
54263;SDS011;40178;53.042;6.406;2023-09-19T09:48:13;8.55;;;2.47;;
54263;SDS011;40178;53.042;6.406;2023-09-19T09:50:45;11.63;;;3.47;;
54263;SDS011;40178;53.042;6.406;2023-09-19T09:58:28;10.15;;;1.98;;
54263;SDS011;40178;53.042;6.406;2023-09-19T10:00:57;7.22;;;1.60;;
54263;SDS011;40178;53.042;6.406;2023-09-19T10:03:40;6.10;;;1.90;;
54263;SDS011;40178;53.042;6.406;2023-09-19T10:06:12;7.22;;;1.77;;
54263;SDS011;40178;53.042;6.406;2023-09-19T10:09:05;7.43;;;1.83;;
54263;SDS011;40178;53.042;6.406;2023-09-19T10:11:40;10.02;;;2.65;;
54263;SDS011;40178;53.042;6.406;2023-09-19T10:14:16;7.60;;;1.73;;
54263;SDS011;40178;53.042;6.406;2023-09-19T10:16:49;9.85;;;2.10;;
54263;SDS011;40178;53.042;6.406;2023-09-19T10:19:15;11.70;;;2.38;;
54263;SDS011;40178;53.042;6.406;2023-09-19T10:21:55;9.25;;;1.50;;
54263;SDS011;40178;53.042;6.406;2023-09-19T10:24:23;9.93;;;2.00;;
54263;SDS011;40178;53.042;6.406;2023-09-19T10:26:51;9.02;;;2.13;;
54263;SDS011;40178;53.042;6.406;2023-09-19T10:29:19;6.22;;;2.00;;
54263;SDS011;40178;53.042;6.406;2023-09-19T10:31:47;12.35;;;2.72;;
54263;SDS011;40178;53.042;6.406;2023-09-19T10:34:15;10.10;;;2.53;;
54263;SDS011;40178;53.042;6.406;2023-09-19T10:36:45;8.07;;;2.20;;
54263;SDS011;40178;53.042;6.406;2023-09-19T10:39:13;8.38;;;2.22;;
54263;SDS011;40178;53.042;6.406;2023-09-19T10:41:53;10.27;;;2.03;;
54263;SDS011;40178;53.042;6.406;2023-09-19T10:44:24;8.18;;;2.22;;
54263;SDS011;40178;53.042;6.406;2023-09-19T10:46:50;7.00;;;2.42;;
54263;SDS011;40178;53.042;6.406;2023-09-19T10:49:18;8.65;;;2.22;;
54263;SDS011;40178;53.042;6.406;2023-09-19T10:51:44;11.82;;;3.00;;
54263;SDS011;40178;53.042;6.406;2023-09-19T10:54:13;8.27;;;2.60;;
54263;SDS011;40178;53.042;6.406;2023-09-19T10:56:43;6.70;;;2.10;;
54263;SDS011;40178;53.042;6.406;2023-09-19T10:59:14;8.45;;;2.40;;
54263;SDS011;40178;53.042;6.406;2023-09-19T11:01:44;9.70;;;2.50;;
54263;SDS011;40178;53.042;6.406;2023-09-19T11:06:59;7.68;;;2.00;;
54263;SDS011;40178;53.042;6.406;2023-09-19T11:09:46;6.05;;;1.67;;
54263;SDS011;40178;53.042;6.406;2023-09-19T11:15:06;9.80;;;2.67;;
54263;SDS011;40178;53.042;6.406;2023-09-19T11:17:36;8.15;;;1.80;;
54263;SDS011;40178;53.042;6.406;2023-09-19T11:20:17;8.93;;;1.98;;
54263;SDS011;40178;53.042;6.406;2023-09-19T11:28:27;8.45;;;2.00;;
54263;SDS011;40178;53.042;6.406;2023-09-19T11:30:53;5.30;;;1.42;;
54263;SDS011;40178;53.042;6.406;2023-09-19T11:33:29;7.05;;;2.13;;
54263;SDS011;40178;53.042;6.406;2023-09-19T11:36:05;8.27;;;1.92;;
54263;SDS011;40178;53.042;6.406;2023-09-19T11:46:20;6.78;;;2.15;;
54263;SDS011;40178;53.042;6.406;2023-09-19T11:48:49;5.72;;;1.40;;
54263;SDS011;40178;53.042;6.406;2023-09-19T11:51:16;11.27;;;2.72;;
54263;SDS011;40178;53.042;6.406;2023-09-19T11:53:47;8.02;;;1.75;;
54263;SDS011;40178;53.042;6.406;2023-09-19T11:56:15;6.90;;;1.58;;
54263;SDS011;40178;53.042;6.406;2023-09-19T11:58:42;9.30;;;2.28;;
54263;SDS011;40178;53.042;6.406;2023-09-19T12:01:11;7.45;;;1.83;;
54263;SDS011;40178;53.042;6.406;2023-09-19T12:03:45;7.05;;;2.00;;
54263;SDS011;40178;53.042;6.406;2023-09-19T12:06:13;5.28;;;1.45;;
54263;SDS011;40178;53.042;6.406;2023-09-19T12:08:41;10.88;;;1.92;;
54263;SDS011;40178;53.042;6.406;2023-09-19T12:11:11;6.95;;;1.83;;
54263;SDS011;40178;53.042;6.406;2023-09-19T12:13:44;9.60;;;1.70;;
54263;SDS011;40178;53.042;6.406;2023-09-19T12:16:12;11.45;;;2.30;;
54263;SDS011;40178;53.042;6.406;2023-09-19T12:18:40;8.85;;;1.60;;
54263;SDS011;40178;53.042;6.406;2023-09-19T12:21:28;9.50;;;2.25;;
54263;SDS011;40178;53.042;6.406;2023-09-19T12:26:40;8.68;;;2.15;;
54263;SDS011;40178;53.042;6.406;2023-09-19T12:29:31;7.78;;;2.45;;
54263;SDS011;40178;53.042;6.406;2023-09-19T12:31:57;11.45;;;2.05;;
54263;SDS011;40178;53.042;6.406;2023-09-19T12:34:24;6.82;;;1.63;;
54263;SDS011;40178;53.042;6.406;2023-09-19T12:37:15;9.98;;;1.40;;
54263;SDS011;40178;53.042;6.406;2023-09-19T12:39:45;11.70;;;2.08;;
54263;SDS011;40178;53.042;6.406;2023-09-19T12:42:14;7.47;;;1.77;;
54263;SDS011;40178;53.042;6.406;2023-09-19T12:44:42;8.00;;;2.17;;
54263;SDS011;40178;53.042;6.406;2023-09-19T12:47:10;8.30;;;2.03;;
54263;SDS011;40178;53.042;6.406;2023-09-19T12:52:51;6.28;;;1.65;;
54263;SDS011;40178;53.042;6.406;2023-09-19T12:55:25;6.68;;;1.50;;
54263;SDS011;40178;53.042;6.406;2023-09-19T12:57:55;6.68;;;1.73;;
54263;SDS011;40178;53.042;6.406;2023-09-19T13:00:55;7.10;;;1.98;;
54263;SDS011;40178;53.042;6.406;2023-09-19T13:05:56;7.20;;;1.73;;
54263;SDS011;40178;53.042;6.406;2023-09-19T13:08:29;6.00;;;1.58;;
54263;SDS011;40178;53.042;6.406;2023-09-19T13:11:16;8.25;;;1.75;;
54263;SDS011;40178;53.042;6.406;2023-09-19T13:13:51;7.18;;;1.65;;
54263;SDS011;40178;53.042;6.406;2023-09-19T13:19:45;7.60;;;1.35;;
54263;SDS011;40178;53.042;6.406;2023-09-19T13:22:37;8.02;;;1.98;;
54263;SDS011;40178;53.042;6.406;2023-09-19T13:25:19;5.43;;;1.58;;
54263;SDS011;40178;53.042;6.406;2023-09-19T13:27:46;5.57;;;1.45;;
54263;SDS011;40178;53.042;6.406;2023-09-19T13:30:16;6.43;;;1.70;;
54263;SDS011;40178;53.042;6.406;2023-09-19T13:32:42;7.50;;;1.67;;
54263;SDS011;40178;53.042;6.406;2023-09-19T13:35:08;9.68;;;2.25;;
54263;SDS011;40178;53.042;6.406;2023-09-19T13:37:35;6.18;;;1.35;;
54263;SDS011;40178;53.042;6.406;2023-09-19T13:40:06;5.05;;;1.40;;
54263;SDS011;40178;53.042;6.406;2023-09-19T13:42:33;8.60;;;2.28;;
54263;SDS011;40178;53.042;6.406;2023-09-19T13:44:59;5.15;;;1.30;;
54263;SDS011;40178;53.042;6.406;2023-09-19T13:47:25;6.53;;;1.45;;
54263;SDS011;40178;53.042;6.406;2023-09-19T13:49:52;3.95;;;1.23;;
54263;SDS011;40178;53.042;6.406;2023-09-19T13:52:21;7.70;;;1.75;;
54263;SDS011;40178;53.042;6.406;2023-09-19T13:54:48;4.22;;;1.20;;
54263;SDS011;40178;53.042;6.406;2023-09-19T13:57:17;6.55;;;1.10;;
54263;SDS011;40178;53.042;6.406;2023-09-19T13:59:43;5.70;;;1.55;;
54263;SDS011;40178;53.042;6.406;2023-09-19T14:02:09;7.18;;;1.10;;
54263;SDS011;40178;53.042;6.406;2023-09-19T14:04:35;3.45;;;1.20;;
54263;SDS011;40178;53.042;6.406;2023-09-19T14:07:01;6.20;;;1.60;;
54263;SDS011;40178;53.042;6.406;2023-09-19T14:09:27;5.40;;;1.35;;
54263;SDS011;40178;53.042;6.406;2023-09-19T14:11:52;5.57;;;1.08;;
54263;SDS011;40178;53.042;6.406;2023-09-19T14:14:18;3.78;;;1.17;;
54263;SDS011;40178;53.042;6.406;2023-09-19T14:16:45;6.15;;;1.27;;
54263;SDS011;40178;53.042;6.406;2023-09-19T14:19:12;4.30;;;1.33;;
54263;SDS011;40178;53.042;6.406;2023-09-19T14:21:38;6.10;;;1.10;;
54263;SDS011;40178;53.042;6.406;2023-09-19T14:24:04;6.25;;;1.10;;
54263;SDS011;40178;53.042;6.406;2023-09-19T14:26:38;3.03;;;1.10;;
54263;SDS011;40178;53.042;6.406;2023-09-19T14:29:04;4.70;;;1.20;;
54263;SDS011;40178;53.042;6.406;2023-09-19T14:31:32;4.85;;;1.38;;
54263;SDS011;40178;53.042;6.406;2023-09-19T14:33:58;3.67;;;1.10;;
54263;SDS011;40178;53.042;6.406;2023-09-19T14:36:24;4.50;;;1.45;;
54263;SDS011;40178;53.042;6.406;2023-09-19T14:38:54;10.02;;;1.83;;
54263;SDS011;40178;53.042;6.406;2023-09-19T14:41:22;5.32;;;1.00;;
54263;SDS011;40178;53.042;6.406;2023-09-19T14:43:48;6.63;;;1.50;;
54263;SDS011;40178;53.042;6.406;2023-09-19T14:46:14;6.22;;;1.23;;
54263;SDS011;40178;53.042;6.406;2023-09-19T14:48:41;4.05;;;1.05;;
54263;SDS011;40178;53.042;6.406;2023-09-19T14:51:07;5.38;;;1.45;;
54263;SDS011;40178;53.042;6.406;2023-09-19T14:53:37;3.15;;;1.10;;
54263;SDS011;40178;53.042;6.406;2023-09-19T14:56:03;5.28;;;1.25;;
54263;SDS011;40178;53.042;6.406;2023-09-19T14:58:30;6.63;;;1.58;;
54263;SDS011;40178;53.042;6.406;2023-09-19T15:01:06;7.95;;;1.80;;
54263;SDS011;40178;53.042;6.406;2023-09-19T15:03:34;4.63;;;1.38;;
54263;SDS011;40178;53.042;6.406;2023-09-19T15:06:04;3.63;;;1.13;;
54263;SDS011;40178;53.042;6.406;2023-09-19T15:08:34;3.80;;;1.20;;
54263;SDS011;40178;53.042;6.406;2023-09-19T15:11:03;2.53;;;0.90;;
54263;SDS011;40178;53.042;6.406;2023-09-19T15:13:32;4.45;;;1.08;;
54263;SDS011;40178;53.042;6.406;2023-09-19T15:15:59;6.43;;;1.20;;
54263;SDS011;40178;53.042;6.406;2023-09-19T15:18:30;5.25;;;1.38;;
54263;SDS011;40178;53.042;6.406;2023-09-19T15:20:56;3.60;;;1.33;;
54263;SDS011;40178;53.042;6.406;2023-09-19T15:23:25;4.03;;;0.95;;
54263;SDS011;40178;53.042;6.406;2023-09-19T15:25:51;5.93;;;1.70;;
54263;SDS011;40178;53.042;6.406;2023-09-19T15:28:18;3.97;;;1.33;;
54263;SDS011;40178;53.042;6.406;2023-09-19T15:30:44;3.70;;;1.23;;
54263;SDS011;40178;53.042;6.406;2023-09-19T15:33:09;2.85;;;1.08;;
54263;SDS011;40178;53.042;6.406;2023-09-19T15:35:36;3.58;;;1.13;;
54263;SDS011;40178;53.042;6.406;2023-09-19T15:38:02;4.63;;;1.20;;
54263;SDS011;40178;53.042;6.406;2023-09-19T15:40:28;3.72;;;1.23;;
54263;SDS011;40178;53.042;6.406;2023-09-19T15:42:54;3.40;;;1.20;;
54263;SDS011;40178;53.042;6.406;2023-09-19T15:45:21;5.40;;;1.25;;
54263;SDS011;40178;53.042;6.406;2023-09-19T15:47:48;5.13;;;1.50;;
54263;SDS011;40178;53.042;6.406;2023-09-19T15:50:13;4.70;;;1.25;;
54263;SDS011;40178;53.042;6.406;2023-09-19T15:52:40;4.63;;;1.40;;
54263;SDS011;40178;53.042;6.406;2023-09-19T15:55:07;4.25;;;1.30;;
54263;SDS011;40178;53.042;6.406;2023-09-19T15:57:34;6.30;;;1.40;;